sensor_id;sensor_type;location;lat;lon;timestamp;P1;durP1;ratioP1;P2;durP2;ratioP2
21480;SDS011;10902;48.158;8.634;2022-10-31T00:01:11;16.13;;;7.32;;
21480;SDS011;10902;48.158;8.634;2022-10-31T00:03:39;14.18;;;6.60;;
21480;SDS011;10902;48.158;8.634;2022-10-31T00:06:05;14.82;;;7.40;;
21480;SDS011;10902;48.158;8.634;2022-10-31T00:08:31;13.77;;;6.78;;
21480;SDS011;10902;48.158;8.634;2022-10-31T00:10:56;13.93;;;7.43;;
21480;SDS011;10902;48.158;8.634;2022-10-31T00:13:22;13.80;;;7.88;;
21480;SDS011;10902;48.158;8.634;2022-10-31T00:15:48;16.73;;;7.55;;
21480;SDS011;10902;48.158;8.634;2022-10-31T00:18:13;15.52;;;7.03;;
21480;SDS011;10902;48.158;8.634;2022-10-31T00:20:39;11.57;;;6.28;;
21480;SDS011;10902;48.158;8.634;2022-10-31T00:23:05;14.45;;;6.63;;
21480;SDS011;10902;48.158;8.634;2022-10-31T00:25:35;13.13;;;6.53;;
21480;SDS011;10902;48.158;8.634;2022-10-31T00:28:03;15.48;;;6.03;;
21480;SDS011;10902;48.158;8.634;2022-10-31T00:30:29;16.42;;;7.00;;
21480;SDS011;10902;48.158;8.634;2022-10-31T00:32:55;15.40;;;7.90;;
21480;SDS011;10902;48.158;8.634;2022-10-31T00:35:21;14.02;;;7.55;;
21480;SDS011;10902;48.158;8.634;2022-10-31T00:37:46;15.95;;;7.50;;
21480;SDS011;10902;48.158;8.634;2022-10-31T00:40:12;14.40;;;7.47;;
21480;SDS011;10902;48.158;8.634;2022-10-31T00:42:41;15.40;;;8.30;;
21480;SDS011;10902;48.158;8.634;2022-10-31T00:45:09;15.07;;;7.97;;
21480;SDS011;10902;48.158;8.634;2022-10-31T00:47:35;13.25;;;6.93;;
21480;SDS011;10902;48.158;8.634;2022-10-31T00:50:02;16.08;;;7.20;;
21480;SDS011;10902;48.158;8.634;2022-10-31T00:52:31;15.32;;;7.55;;
21480;SDS011;10902;48.158;8.634;2022-10-31T00:54:56;14.23;;;7.00;;
21480;SDS011;10902;48.158;8.634;2022-10-31T00:57:22;15.98;;;7.30;;
21480;SDS011;10902;48.158;8.634;2022-10-31T00:59:47;15.73;;;6.32;;
21480;SDS011;10902;48.158;8.634;2022-10-31T01:02:13;15.50;;;7.63;;
21480;SDS011;10902;48.158;8.634;2022-10-31T01:04:38;13.98;;;7.10;;
21480;SDS011;10902;48.158;8.634;2022-10-31T01:07:04;13.98;;;7.38;;
21480;SDS011;10902;48.158;8.634;2022-10-31T01:09:29;13.68;;;8.10;;
21480;SDS011;10902;48.158;8.634;2022-10-31T01:11:55;16.40;;;8.70;;
21480;SDS011;10902;48.158;8.634;2022-10-31T01:14:21;14.95;;;8.10;;
21480;SDS011;10902;48.158;8.634;2022-10-31T01:16:46;16.63;;;8.88;;
21480;SDS011;10902;48.158;8.634;2022-10-31T01:19:12;19.65;;;9.32;;
21480;SDS011;10902;48.158;8.634;2022-10-31T01:21:37;16.65;;;7.70;;
21480;SDS011;10902;48.158;8.634;2022-10-31T01:24:03;14.52;;;8.05;;
21480;SDS011;10902;48.158;8.634;2022-10-31T01:26:29;13.23;;;7.60;;
21480;SDS011;10902;48.158;8.634;2022-10-31T01:28:58;14.43;;;7.57;;
21480;SDS011;10902;48.158;8.634;2022-10-31T01:31:33;15.27;;;6.50;;
21480;SDS011;10902;48.158;8.634;2022-10-31T01:34:01;14.35;;;6.97;;
21480;SDS011;10902;48.158;8.634;2022-10-31T01:36:32;15.98;;;6.47;;
21480;SDS011;10902;48.158;8.634;2022-10-31T01:39:00;10.15;;;5.75;;
21480;SDS011;10902;48.158;8.634;2022-10-31T01:41:28;11.27;;;6.18;;
21480;SDS011;10902;48.158;8.634;2022-10-31T01:46:26;13.98;;;8.52;;
21480;SDS011;10902;48.158;8.634;2022-10-31T01:48:56;12.82;;;7.80;;
21480;SDS011;10902;48.158;8.634;2022-10-31T01:51:25;16.83;;;8.00;;
21480;SDS011;10902;48.158;8.634;2022-10-31T01:53:58;13.60;;;7.38;;
21480;SDS011;10902;48.158;8.634;2022-10-31T01:56:26;14.00;;;7.68;;
21480;SDS011;10902;48.158;8.634;2022-10-31T01:58:52;12.68;;;6.90;;
21480;SDS011;10902;48.158;8.634;2022-10-31T02:01:20;13.52;;;7.20;;
21480;SDS011;10902;48.158;8.634;2022-10-31T02:03:46;14.40;;;8.25;;
21480;SDS011;10902;48.158;8.634;2022-10-31T02:06:16;13.90;;;6.90;;
21480;SDS011;10902;48.158;8.634;2022-10-31T02:08:51;12.85;;;6.43;;
21480;SDS011;10902;48.158;8.634;2022-10-31T02:11:18;15.45;;;7.28;;
21480;SDS011;10902;48.158;8.634;2022-10-31T02:13:44;17.52;;;6.07;;
21480;SDS011;10902;48.158;8.634;2022-10-31T02:16:11;13.18;;;6.53;;
21480;SDS011;10902;48.158;8.634;2022-10-31T02:18:36;14.25;;;6.72;;
21480;SDS011;10902;48.158;8.634;2022-10-31T02:26:57;14.15;;;6.72;;
21480;SDS011;10902;48.158;8.634;2022-10-31T02:35:24;14.15;;;6.85;;
21480;SDS011;10902;48.158;8.634;2022-10-31T02:41:01;12.43;;;6.18;;
21480;SDS011;10902;48.158;8.634;2022-10-31T02:48:58;14.57;;;7.30;;
21480;SDS011;10902;48.158;8.634;2022-10-31T02:51:29;11.73;;;6.07;;
21480;SDS011;10902;48.158;8.634;2022-10-31T02:53:55;11.90;;;7.00;;
21480;SDS011;10902;48.158;8.634;2022-10-31T02:56:20;12.98;;;6.55;;
21480;SDS011;10902;48.158;8.634;2022-10-31T03:09:22;11.40;;;6.22;;
21480;SDS011;10902;48.158;8.634;2022-10-31T03:12:08;14.20;;;6.43;;
21480;SDS011;10902;48.158;8.634;2022-10-31T03:14:55;10.52;;;6.55;;
21480;SDS011;10902;48.158;8.634;2022-10-31T03:17:37;14.32;;;6.90;;
21480;SDS011;10902;48.158;8.634;2022-10-31T03:20:09;16.77;;;7.78;;
21480;SDS011;10902;48.158;8.634;2022-10-31T03:22:35;17.27;;;8.40;;
21480;SDS011;10902;48.158;8.634;2022-10-31T03:25:04;14.90;;;7.05;;
21480;SDS011;10902;48.158;8.634;2022-10-31T03:27:31;12.07;;;7.38;;
21480;SDS011;10902;48.158;8.634;2022-10-31T03:30:00;15.18;;;7.90;;
21480;SDS011;10902;48.158;8.634;2022-10-31T03:32:32;11.70;;;6.63;;
21480;SDS011;10902;48.158;8.634;2022-10-31T03:35:02;15.75;;;7.68;;
21480;SDS011;10902;48.158;8.634;2022-10-31T03:37:32;13.73;;;7.15;;
21480;SDS011;10902;48.158;8.634;2022-10-31T03:40:00;15.68;;;7.13;;
21480;SDS011;10902;48.158;8.634;2022-10-31T03:42:30;14.35;;;7.35;;
21480;SDS011;10902;48.158;8.634;2022-10-31T03:45:05;16.70;;;7.43;;
21480;SDS011;10902;48.158;8.634;2022-10-31T03:47:45;16.27;;;7.63;;
21480;SDS011;10902;48.158;8.634;2022-10-31T03:50:12;14.40;;;7.97;;
21480;SDS011;10902;48.158;8.634;2022-10-31T03:52:54;15.35;;;6.60;;
21480;SDS011;10902;48.158;8.634;2022-10-31T03:55:39;15.75;;;6.88;;
21480;SDS011;10902;48.158;8.634;2022-10-31T03:58:12;12.77;;;6.15;;
21480;SDS011;10902;48.158;8.634;2022-10-31T04:00:44;13.93;;;6.32;;
21480;SDS011;10902;48.158;8.634;2022-10-31T04:03:32;13.07;;;6.72;;
21480;SDS011;10902;48.158;8.634;2022-10-31T04:06:00;13.85;;;6.80;;
21480;SDS011;10902;48.158;8.634;2022-10-31T04:08:31;11.20;;;6.68;;
21480;SDS011;10902;48.158;8.634;2022-10-31T04:11:01;11.65;;;6.25;;
21480;SDS011;10902;48.158;8.634;2022-10-31T04:13:29;11.80;;;6.43;;
21480;SDS011;10902;48.158;8.634;2022-10-31T04:15:58;15.02;;;7.07;;
21480;SDS011;10902;48.158;8.634;2022-10-31T04:18:25;12.77;;;6.47;;
21480;SDS011;10902;48.158;8.634;2022-10-31T04:21:01;13.10;;;5.75;;
21480;SDS011;10902;48.158;8.634;2022-10-31T04:23:28;13.40;;;6.78;;
21480;SDS011;10902;48.158;8.634;2022-10-31T04:25:54;15.95;;;7.25;;
21480;SDS011;10902;48.158;8.634;2022-10-31T04:28:20;15.40;;;7.78;;
21480;SDS011;10902;48.158;8.634;2022-10-31T04:30:46;14.45;;;7.03;;
21480;SDS011;10902;48.158;8.634;2022-10-31T04:33:12;13.65;;;6.78;;
21480;SDS011;10902;48.158;8.634;2022-10-31T04:35:37;15.73;;;6.90;;
21480;SDS011;10902;48.158;8.634;2022-10-31T04:38:03;15.38;;;6.75;;
21480;SDS011;10902;48.158;8.634;2022-10-31T04:40:28;13.73;;;6.30;;
21480;SDS011;10902;48.158;8.634;2022-10-31T04:42:54;12.70;;;6.57;;
21480;SDS011;10902;48.158;8.634;2022-10-31T04:45:19;10.95;;;6.30;;
21480;SDS011;10902;48.158;8.634;2022-10-31T04:47:45;16.20;;;6.43;;
21480;SDS011;10902;48.158;8.634;2022-10-31T04:50:10;11.60;;;5.65;;
21480;SDS011;10902;48.158;8.634;2022-10-31T04:52:39;12.80;;;5.85;;
21480;SDS011;10902;48.158;8.634;2022-10-31T04:55:10;11.90;;;6.10;;
21480;SDS011;10902;48.158;8.634;2022-10-31T04:57:40;11.20;;;5.82;;
21480;SDS011;10902;48.158;8.634;2022-10-31T05:00:10;10.80;;;5.18;;
21480;SDS011;10902;48.158;8.634;2022-10-31T05:02:50;9.43;;;4.80;;
21480;SDS011;10902;48.158;8.634;2022-10-31T05:05:18;13.90;;;5.68;;
21480;SDS011;10902;48.158;8.634;2022-10-31T05:07:46;15.05;;;6.40;;
21480;SDS011;10902;48.158;8.634;2022-10-31T05:10:14;10.73;;;5.60;;
21480;SDS011;10902;48.158;8.634;2022-10-31T05:12:51;11.55;;;6.03;;
21480;SDS011;10902;48.158;8.634;2022-10-31T05:15:23;14.07;;;6.20;;
21480;SDS011;10902;48.158;8.634;2022-10-31T05:17:49;13.30;;;7.38;;
21480;SDS011;10902;48.158;8.634;2022-10-31T05:20:16;12.88;;;6.13;;
21480;SDS011;10902;48.158;8.634;2022-10-31T05:22:43;18.13;;;6.97;;
21480;SDS011;10902;48.158;8.634;2022-10-31T05:25:10;14.00;;;7.13;;
21480;SDS011;10902;48.158;8.634;2022-10-31T05:27:38;13.25;;;6.97;;
21480;SDS011;10902;48.158;8.634;2022-10-31T05:30:05;14.18;;;7.95;;
21480;SDS011;10902;48.158;8.634;2022-10-31T05:32:36;15.60;;;8.57;;
21480;SDS011;10902;48.158;8.634;2022-10-31T05:35:06;15.50;;;7.38;;
21480;SDS011;10902;48.158;8.634;2022-10-31T05:37:33;15.18;;;7.57;;
21480;SDS011;10902;48.158;8.634;2022-10-31T05:40:00;13.10;;;7.15;;
21480;SDS011;10902;48.158;8.634;2022-10-31T05:42:26;14.82;;;7.32;;
21480;SDS011;10902;48.158;8.634;2022-10-31T05:44:52;17.58;;;8.43;;
21480;SDS011;10902;48.158;8.634;2022-10-31T05:47:17;15.95;;;7.53;;
21480;SDS011;10902;48.158;8.634;2022-10-31T05:49:43;19.42;;;7.97;;
21480;SDS011;10902;48.158;8.634;2022-10-31T05:52:08;18.00;;;8.15;;
21480;SDS011;10902;48.158;8.634;2022-10-31T05:54:34;15.90;;;8.68;;
21480;SDS011;10902;48.158;8.634;2022-10-31T05:56:59;18.10;;;7.57;;
21480;SDS011;10902;48.158;8.634;2022-10-31T05:59:25;20.13;;;8.73;;
21480;SDS011;10902;48.158;8.634;2022-10-31T06:01:53;15.82;;;8.00;;
21480;SDS011;10902;48.158;8.634;2022-10-31T06:04:19;18.30;;;8.35;;
21480;SDS011;10902;48.158;8.634;2022-10-31T06:06:44;13.98;;;8.07;;
21480;SDS011;10902;48.158;8.634;2022-10-31T06:09:10;17.95;;;8.80;;
21480;SDS011;10902;48.158;8.634;2022-10-31T06:11:36;17.33;;;8.98;;
21480;SDS011;10902;48.158;8.634;2022-10-31T06:14:01;19.40;;;9.80;;
21480;SDS011;10902;48.158;8.634;2022-10-31T06:16:27;18.77;;;10.10;;
21480;SDS011;10902;48.158;8.634;2022-10-31T06:18:53;20.52;;;10.25;;
21480;SDS011;10902;48.158;8.634;2022-10-31T06:21:18;19.02;;;10.30;;
21480;SDS011;10902;48.158;8.634;2022-10-31T06:23:44;20.02;;;9.63;;
21480;SDS011;10902;48.158;8.634;2022-10-31T06:26:09;17.25;;;9.02;;
21480;SDS011;10902;48.158;8.634;2022-10-31T06:28:35;15.85;;;10.00;;
21480;SDS011;10902;48.158;8.634;2022-10-31T06:31:01;20.40;;;10.02;;
21480;SDS011;10902;48.158;8.634;2022-10-31T06:33:26;17.05;;;9.57;;
21480;SDS011;10902;48.158;8.634;2022-10-31T06:35:52;16.17;;;8.20;;
21480;SDS011;10902;48.158;8.634;2022-10-31T06:38:17;24.85;;;9.32;;
21480;SDS011;10902;48.158;8.634;2022-10-31T06:40:43;18.70;;;8.68;;
21480;SDS011;10902;48.158;8.634;2022-10-31T06:43:09;14.57;;;7.22;;
21480;SDS011;10902;48.158;8.634;2022-10-31T06:45:36;15.77;;;7.65;;
21480;SDS011;10902;48.158;8.634;2022-10-31T06:48:01;15.77;;;7.80;;
21480;SDS011;10902;48.158;8.634;2022-10-31T06:50:27;14.77;;;7.88;;
21480;SDS011;10902;48.158;8.634;2022-10-31T06:52:54;12.38;;;6.53;;
21480;SDS011;10902;48.158;8.634;2022-10-31T06:55:21;11.40;;;5.85;;
21480;SDS011;10902;48.158;8.634;2022-10-31T06:57:57;15.25;;;6.57;;
21480;SDS011;10902;48.158;8.634;2022-10-31T07:00:25;12.25;;;7.25;;
21480;SDS011;10902;48.158;8.634;2022-10-31T07:02:55;15.98;;;7.40;;
21480;SDS011;10902;48.158;8.634;2022-10-31T07:05:25;13.07;;;7.00;;
21480;SDS011;10902;48.158;8.634;2022-10-31T07:07:59;14.07;;;6.57;;
21480;SDS011;10902;48.158;8.634;2022-10-31T07:10:26;12.02;;;5.97;;
21480;SDS011;10902;48.158;8.634;2022-10-31T07:12:53;11.07;;;6.22;;
21480;SDS011;10902;48.158;8.634;2022-10-31T07:15:23;11.60;;;6.22;;
21480;SDS011;10902;48.158;8.634;2022-10-31T07:17:50;13.18;;;6.15;;
21480;SDS011;10902;48.158;8.634;2022-10-31T07:20:16;12.07;;;5.88;;
21480;SDS011;10902;48.158;8.634;2022-10-31T07:22:41;11.85;;;6.38;;
21480;SDS011;10902;48.158;8.634;2022-10-31T07:25:07;9.48;;;5.93;;
21480;SDS011;10902;48.158;8.634;2022-10-31T07:27:40;11.80;;;5.72;;
21480;SDS011;10902;48.158;8.634;2022-10-31T07:30:07;11.90;;;6.45;;
21480;SDS011;10902;48.158;8.634;2022-10-31T07:32:38;13.23;;;5.97;;
21480;SDS011;10902;48.158;8.634;2022-10-31T07:35:12;11.82;;;4.97;;
21480;SDS011;10902;48.158;8.634;2022-10-31T07:37:39;10.73;;;5.45;;
21480;SDS011;10902;48.158;8.634;2022-10-31T07:40:06;14.75;;;5.40;;
21480;SDS011;10902;48.158;8.634;2022-10-31T07:42:36;12.27;;;5.70;;
21480;SDS011;10902;48.158;8.634;2022-10-31T07:45:06;11.90;;;5.57;;
21480;SDS011;10902;48.158;8.634;2022-10-31T07:47:41;14.43;;;6.13;;
21480;SDS011;10902;48.158;8.634;2022-10-31T07:50:08;9.32;;;5.95;;
21480;SDS011;10902;48.158;8.634;2022-10-31T07:52:35;13.43;;;5.55;;
21480;SDS011;10902;48.158;8.634;2022-10-31T07:55:00;10.32;;;4.85;;
21480;SDS011;10902;48.158;8.634;2022-10-31T07:57:26;12.88;;;5.35;;
21480;SDS011;10902;48.158;8.634;2022-10-31T07:59:53;13.82;;;5.82;;
21480;SDS011;10902;48.158;8.634;2022-10-31T08:02:18;13.43;;;5.82;;
21480;SDS011;10902;48.158;8.634;2022-10-31T08:04:44;9.38;;;5.13;;
21480;SDS011;10902;48.158;8.634;2022-10-31T08:07:09;11.48;;;5.05;;
21480;SDS011;10902;48.158;8.634;2022-10-31T08:09:35;12.68;;;5.30;;
21480;SDS011;10902;48.158;8.634;2022-10-31T08:12:01;11.23;;;4.85;;
21480;SDS011;10902;48.158;8.634;2022-10-31T08:14:26;10.23;;;4.72;;
21480;SDS011;10902;48.158;8.634;2022-10-31T08:16:53;13.77;;;5.50;;
21480;SDS011;10902;48.158;8.634;2022-10-31T08:19:19;11.10;;;5.53;;
21480;SDS011;10902;48.158;8.634;2022-10-31T08:21:44;11.80;;;5.10;;
21480;SDS011;10902;48.158;8.634;2022-10-31T08:24:11;10.43;;;4.60;;
21480;SDS011;10902;48.158;8.634;2022-10-31T08:26:37;13.07;;;5.05;;
21480;SDS011;10902;48.158;8.634;2022-10-31T08:29:03;13.90;;;4.78;;
21480;SDS011;10902;48.158;8.634;2022-10-31T08:31:29;12.32;;;4.93;;
21480;SDS011;10902;48.158;8.634;2022-10-31T08:33:54;12.70;;;4.93;;
21480;SDS011;10902;48.158;8.634;2022-10-31T08:36:20;10.05;;;4.50;;
21480;SDS011;10902;48.158;8.634;2022-10-31T08:38:46;11.35;;;4.88;;
21480;SDS011;10902;48.158;8.634;2022-10-31T08:41:12;11.10;;;4.82;;
21480;SDS011;10902;48.158;8.634;2022-10-31T08:43:39;8.57;;;5.05;;
21480;SDS011;10902;48.158;8.634;2022-10-31T08:46:04;12.73;;;5.07;;
21480;SDS011;10902;48.158;8.634;2022-10-31T08:48:30;11.77;;;4.88;;
21480;SDS011;10902;48.158;8.634;2022-10-31T08:50:57;10.32;;;4.85;;
21480;SDS011;10902;48.158;8.634;2022-10-31T08:53:23;9.43;;;4.40;;
21480;SDS011;10902;48.158;8.634;2022-10-31T08:55:49;10.57;;;4.90;;
21480;SDS011;10902;48.158;8.634;2022-10-31T08:58:16;8.98;;;4.20;;
21480;SDS011;10902;48.158;8.634;2022-10-31T09:00:44;9.45;;;4.60;;
21480;SDS011;10902;48.158;8.634;2022-10-31T09:03:12;11.40;;;4.75;;
21480;SDS011;10902;48.158;8.634;2022-10-31T09:05:39;12.68;;;4.40;;
21480;SDS011;10902;48.158;8.634;2022-10-31T09:08:06;8.40;;;4.13;;
21480;SDS011;10902;48.158;8.634;2022-10-31T09:10:33;10.18;;;4.75;;
21480;SDS011;10902;48.158;8.634;2022-10-31T09:13:02;9.25;;;4.10;;
21480;SDS011;10902;48.158;8.634;2022-10-31T09:15:34;11.00;;;4.53;;
21480;SDS011;10902;48.158;8.634;2022-10-31T09:18:01;12.18;;;4.15;;
21480;SDS011;10902;48.158;8.634;2022-10-31T09:20:27;9.88;;;4.25;;
21480;SDS011;10902;48.158;8.634;2022-10-31T09:23:03;10.88;;;4.82;;
21480;SDS011;10902;48.158;8.634;2022-10-31T09:25:32;12.82;;;4.35;;
21480;SDS011;10902;48.158;8.634;2022-10-31T09:28:00;11.07;;;4.30;;
21480;SDS011;10902;48.158;8.634;2022-10-31T09:30:28;9.75;;;3.90;;
21480;SDS011;10902;48.158;8.634;2022-10-31T09:32:59;12.90;;;3.88;;
21480;SDS011;10902;48.158;8.634;2022-10-31T09:35:26;12.50;;;4.65;;
21480;SDS011;10902;48.158;8.634;2022-10-31T09:37:56;7.75;;;3.78;;
21480;SDS011;10902;48.158;8.634;2022-10-31T09:43:29;10.65;;;4.50;;
21480;SDS011;10902;48.158;8.634;2022-10-31T09:46:24;7.22;;;3.58;;
21480;SDS011;10902;48.158;8.634;2022-10-31T09:54:38;12.18;;;4.10;;
21480;SDS011;10902;48.158;8.634;2022-10-31T09:57:13;9.60;;;3.72;;
21480;SDS011;10902;48.158;8.634;2022-10-31T09:59:40;11.55;;;4.10;;
21480;SDS011;10902;48.158;8.634;2022-10-31T10:02:20;7.93;;;3.60;;
21480;SDS011;10902;48.158;8.634;2022-10-31T10:04:53;9.57;;;2.83;;
21480;SDS011;10902;48.158;8.634;2022-10-31T10:07:28;9.80;;;3.33;;
21480;SDS011;10902;48.158;8.634;2022-10-31T10:10:05;10.88;;;4.05;;
21480;SDS011;10902;48.158;8.634;2022-10-31T10:13:13;9.00;;;3.47;;
21480;SDS011;10902;48.158;8.634;2022-10-31T10:16:06;7.40;;;3.25;;
21480;SDS011;10902;48.158;8.634;2022-10-31T10:18:42;8.73;;;2.90;;
21480;SDS011;10902;48.158;8.634;2022-10-31T10:23:50;8.63;;;3.38;;
21480;SDS011;10902;48.158;8.634;2022-10-31T10:26:29;6.25;;;2.50;;
21480;SDS011;10902;48.158;8.634;2022-10-31T10:29:02;8.55;;;3.67;;
21480;SDS011;10902;48.158;8.634;2022-10-31T10:31:41;9.43;;;3.20;;
21480;SDS011;10902;48.158;8.634;2022-10-31T10:34:53;8.32;;;2.75;;
21480;SDS011;10902;48.158;8.634;2022-10-31T10:37:03;7.20;;;3.20;;
21480;SDS011;10902;48.158;8.634;2022-10-31T10:39:38;7.90;;;3.45;;
21480;SDS011;10902;48.158;8.634;2022-10-31T10:42:12;8.57;;;3.03;;
21480;SDS011;10902;48.158;8.634;2022-10-31T10:44:58;9.85;;;3.03;;
21480;SDS011;10902;48.158;8.634;2022-10-31T10:47:44;6.82;;;2.63;;
21480;SDS011;10902;48.158;8.634;2022-10-31T10:50:22;6.18;;;2.42;;
21480;SDS011;10902;48.158;8.634;2022-10-31T10:58:17;7.95;;;2.78;;
21480;SDS011;10902;48.158;8.634;2022-10-31T11:00:44;8.23;;;2.70;;
21480;SDS011;10902;48.158;8.634;2022-10-31T11:03:14;8.52;;;3.58;;
21480;SDS011;10902;48.158;8.634;2022-10-31T11:08:25;6.78;;;2.20;;
21480;SDS011;10902;48.158;8.634;2022-10-31T11:13:44;9.52;;;3.05;;
21480;SDS011;10902;48.158;8.634;2022-10-31T11:16:13;9.63;;;2.88;;
21480;SDS011;10902;48.158;8.634;2022-10-31T11:18:52;9.18;;;2.83;;
21480;SDS011;10902;48.158;8.634;2022-10-31T11:21:23;6.38;;;2.90;;
21480;SDS011;10902;48.158;8.634;2022-10-31T11:24:27;7.25;;;2.90;;
21480;SDS011;10902;48.158;8.634;2022-10-31T11:27:02;8.75;;;2.92;;
21480;SDS011;10902;48.158;8.634;2022-10-31T11:29:37;7.43;;;2.90;;
21480;SDS011;10902;48.158;8.634;2022-10-31T11:32:02;5.75;;;2.60;;
21480;SDS011;10902;48.158;8.634;2022-10-31T11:34:35;7.53;;;2.83;;
21480;SDS011;10902;48.158;8.634;2022-10-31T11:37:13;7.90;;;2.90;;
21480;SDS011;10902;48.158;8.634;2022-10-31T11:39:50;7.80;;;3.05;;
21480;SDS011;10902;48.158;8.634;2022-10-31T11:42:26;11.23;;;2.75;;
21480;SDS011;10902;48.158;8.634;2022-10-31T11:44:54;7.68;;;2.53;;
21480;SDS011;10902;48.158;8.634;2022-10-31T11:47:23;8.27;;;3.05;;
21480;SDS011;10902;48.158;8.634;2022-10-31T11:49:52;6.95;;;2.42;;
21480;SDS011;10902;48.158;8.634;2022-10-31T11:52:30;5.63;;;2.60;;
21480;SDS011;10902;48.158;8.634;2022-10-31T11:54:58;9.05;;;3.03;;
21480;SDS011;10902;48.158;8.634;2022-10-31T11:57:41;8.43;;;3.30;;
21480;SDS011;10902;48.158;8.634;2022-10-31T12:00:31;8.38;;;3.13;;
21480;SDS011;10902;48.158;8.634;2022-10-31T12:06:02;10.00;;;3.88;;
21480;SDS011;10902;48.158;8.634;2022-10-31T12:08:37;11.05;;;3.45;;
21480;SDS011;10902;48.158;8.634;2022-10-31T12:11:23;10.70;;;3.90;;
21480;SDS011;10902;48.158;8.634;2022-10-31T12:27:40;7.70;;;3.20;;
21480;SDS011;10902;48.158;8.634;2022-10-31T12:36:23;7.47;;;3.42;;
21480;SDS011;10902;48.158;8.634;2022-10-31T12:38:30;8.60;;;3.08;;
21480;SDS011;10902;48.158;8.634;2022-10-31T12:41:03;11.40;;;3.65;;
21480;SDS011;10902;48.158;8.634;2022-10-31T12:43:46;9.73;;;2.92;;
21480;SDS011;10902;48.158;8.634;2022-10-31T12:46:23;7.70;;;3.22;;
21480;SDS011;10902;48.158;8.634;2022-10-31T12:49:03;9.07;;;3.17;;
21480;SDS011;10902;48.158;8.634;2022-10-31T14:28:50;6.45;;;1.95;;
21480;SDS011;10902;48.158;8.634;2022-10-31T14:58:04;7.85;;;2.55;;
21480;SDS011;10902;48.158;8.634;2022-10-31T15:00:39;9.52;;;3.20;;
21480;SDS011;10902;48.158;8.634;2022-10-31T15:03:18;9.27;;;3.03;;
21480;SDS011;10902;48.158;8.634;2022-10-31T15:05:55;7.45;;;3.25;;
21480;SDS011;10902;48.158;8.634;2022-10-31T15:11:11;8.98;;;2.70;;
21480;SDS011;10902;48.158;8.634;2022-10-31T15:13:47;8.52;;;2.47;;
21480;SDS011;10902;48.158;8.634;2022-10-31T15:16:57;8.35;;;2.85;;
21480;SDS011;10902;48.158;8.634;2022-10-31T15:19:06;8.32;;;3.08;;
21480;SDS011;10902;48.158;8.634;2022-10-31T15:21:35;12.95;;;3.22;;
21480;SDS011;10902;48.158;8.634;2022-10-31T15:24:10;7.72;;;2.95;;
21480;SDS011;10902;48.158;8.634;2022-10-31T15:26:40;6.25;;;2.80;;
21480;SDS011;10902;48.158;8.634;2022-10-31T15:29:12;8.88;;;3.13;;
21480;SDS011;10902;48.158;8.634;2022-10-31T15:31:48;7.93;;;3.28;;
21480;SDS011;10902;48.158;8.634;2022-10-31T15:35:02;9.40;;;2.85;;
21480;SDS011;10902;48.158;8.634;2022-10-31T15:37:08;9.25;;;2.55;;
21480;SDS011;10902;48.158;8.634;2022-10-31T15:39:42;11.30;;;3.00;;
21480;SDS011;10902;48.158;8.634;2022-10-31T15:45:32;8.00;;;3.13;;
21480;SDS011;10902;48.158;8.634;2022-10-31T15:47:38;9.27;;;3.22;;
21480;SDS011;10902;48.158;8.634;2022-10-31T15:53:20;9.95;;;3.42;;
21480;SDS011;10902;48.158;8.634;2022-10-31T15:56:00;12.23;;;5.05;;
21480;SDS011;10902;48.158;8.634;2022-10-31T15:58:30;11.30;;;5.43;;
21480;SDS011;10902;48.158;8.634;2022-10-31T16:00:59;15.68;;;7.75;;
21480;SDS011;10902;48.158;8.634;2022-10-31T16:03:28;10.13;;;5.53;;
21480;SDS011;10902;48.158;8.634;2022-10-31T16:05:59;9.30;;;4.30;;
21480;SDS011;10902;48.158;8.634;2022-10-31T16:13:32;9.30;;;3.63;;
21480;SDS011;10902;48.158;8.634;2022-10-31T16:16:01;8.00;;;3.60;;
21480;SDS011;10902;48.158;8.634;2022-10-31T16:18:34;11.73;;;3.85;;
21480;SDS011;10902;48.158;8.634;2022-10-31T16:21:02;8.38;;;3.45;;
21480;SDS011;10902;48.158;8.634;2022-10-31T16:23:28;13.45;;;4.07;;
21480;SDS011;10902;48.158;8.634;2022-10-31T16:25:53;12.82;;;5.13;;
21480;SDS011;10902;48.158;8.634;2022-10-31T16:28:20;12.07;;;3.97;;
21480;SDS011;10902;48.158;8.634;2022-10-31T16:30:49;10.43;;;3.78;;
21480;SDS011;10902;48.158;8.634;2022-10-31T16:35:50;10.77;;;4.45;;
21480;SDS011;10902;48.158;8.634;2022-10-31T16:38:16;12.10;;;4.32;;
21480;SDS011;10902;48.158;8.634;2022-10-31T16:40:41;10.95;;;3.97;;
21480;SDS011;10902;48.158;8.634;2022-10-31T16:43:09;12.82;;;4.50;;
21480;SDS011;10902;48.158;8.634;2022-10-31T16:45:37;8.85;;;4.45;;
21480;SDS011;10902;48.158;8.634;2022-10-31T16:48:10;14.63;;;5.10;;
21480;SDS011;10902;48.158;8.634;2022-10-31T16:50:41;11.00;;;4.95;;
21480;SDS011;10902;48.158;8.634;2022-10-31T16:53:08;10.15;;;5.07;;
21480;SDS011;10902;48.158;8.634;2022-10-31T16:55:40;15.48;;;4.75;;
21480;SDS011;10902;48.158;8.634;2022-10-31T16:58:11;11.48;;;4.70;;
21480;SDS011;10902;48.158;8.634;2022-10-31T17:00:49;9.40;;;4.03;;
21480;SDS011;10902;48.158;8.634;2022-10-31T17:03:15;10.77;;;4.25;;
21480;SDS011;10902;48.158;8.634;2022-10-31T17:05:41;12.57;;;4.78;;
21480;SDS011;10902;48.158;8.634;2022-10-31T17:08:06;12.52;;;5.28;;
21480;SDS011;10902;48.158;8.634;2022-10-31T17:10:32;10.57;;;4.97;;
21480;SDS011;10902;48.158;8.634;2022-10-31T17:12:58;10.40;;;4.75;;
21480;SDS011;10902;48.158;8.634;2022-10-31T17:15:27;10.20;;;5.20;;
21480;SDS011;10902;48.158;8.634;2022-10-31T17:17:56;11.63;;;5.25;;
21480;SDS011;10902;48.158;8.634;2022-10-31T17:20:26;15.32;;;6.35;;
21480;SDS011;10902;48.158;8.634;2022-10-31T17:22:53;12.20;;;5.30;;
21480;SDS011;10902;48.158;8.634;2022-10-31T17:25:21;11.80;;;4.93;;
21480;SDS011;10902;48.158;8.634;2022-10-31T17:27:48;10.85;;;4.90;;
21480;SDS011;10902;48.158;8.634;2022-10-31T17:30:15;15.15;;;5.68;;
21480;SDS011;10902;48.158;8.634;2022-10-31T17:32:42;10.65;;;5.15;;
21480;SDS011;10902;48.158;8.634;2022-10-31T17:35:10;11.60;;;5.30;;
21480;SDS011;10902;48.158;8.634;2022-10-31T17:37:36;12.90;;;5.28;;
21480;SDS011;10902;48.158;8.634;2022-10-31T17:40:03;13.90;;;5.55;;
21480;SDS011;10902;48.158;8.634;2022-10-31T17:42:29;12.68;;;5.82;;
21480;SDS011;10902;48.158;8.634;2022-10-31T17:44:55;17.02;;;6.72;;
21480;SDS011;10902;48.158;8.634;2022-10-31T17:47:20;15.73;;;6.50;;
21480;SDS011;10902;48.158;8.634;2022-10-31T17:49:46;12.20;;;5.85;;
21480;SDS011;10902;48.158;8.634;2022-10-31T17:52:12;10.88;;;5.53;;
21480;SDS011;10902;48.158;8.634;2022-10-31T17:54:37;13.10;;;6.10;;
21480;SDS011;10902;48.158;8.634;2022-10-31T17:57:03;12.23;;;5.68;;
21480;SDS011;10902;48.158;8.634;2022-10-31T17:59:28;16.67;;;5.80;;
21480;SDS011;10902;48.158;8.634;2022-10-31T18:01:55;15.60;;;6.57;;
21480;SDS011;10902;48.158;8.634;2022-10-31T18:04:21;11.70;;;4.90;;
21480;SDS011;10902;48.158;8.634;2022-10-31T18:06:53;11.50;;;6.30;;
21480;SDS011;10902;48.158;8.634;2022-10-31T18:09:19;11.45;;;6.25;;
21480;SDS011;10902;48.158;8.634;2022-10-31T18:12:23;14.07;;;6.65;;
21480;SDS011;10902;48.158;8.634;2022-10-31T18:15:15;11.48;;;5.93;;
21480;SDS011;10902;48.158;8.634;2022-10-31T18:17:42;10.80;;;4.80;;
21480;SDS011;10902;48.158;8.634;2022-10-31T18:20:08;12.55;;;5.38;;
21480;SDS011;10902;48.158;8.634;2022-10-31T18:22:34;11.98;;;4.97;;
21480;SDS011;10902;48.158;8.634;2022-10-31T18:25:00;11.20;;;5.57;;
21480;SDS011;10902;48.158;8.634;2022-10-31T18:27:26;10.80;;;5.18;;
21480;SDS011;10902;48.158;8.634;2022-10-31T18:29:52;12.57;;;6.03;;
21480;SDS011;10902;48.158;8.634;2022-10-31T18:32:18;13.30;;;5.63;;